createdAt,value
2022-11-05T00:00:35.534Z,100813.25
2022-11-05T00:03:20.890Z,100812.56
2022-11-05T00:06:08.664Z,100824.06
2022-11-05T00:08:54.092Z,100822.16
2022-11-05T00:11:40.674Z,100836.22
2022-11-05T00:14:25.689Z,100840.72
2022-11-05T00:16:52.132Z,100830.50
2022-11-05T00:19:18.597Z,100841.44
2022-11-05T00:22:03.581Z,100838.50
2022-11-05T00:24:48.686Z,100839.47
2022-11-05T00:27:15.183Z,100848.38
2022-11-05T00:29:41.609Z,100846.03
2022-11-05T00:32:08.124Z,100846.41
2022-11-05T00:34:34.690Z,100839.13
2022-11-05T00:37:01.268Z,100845.69
2022-11-05T00:39:27.836Z,100839.94
2022-11-05T00:42:13.256Z,100844.50
2022-11-05T00:44:57.968Z,100855.41
2022-11-05T00:47:43.421Z,100855.06
2022-11-05T00:50:10.680Z,100856.25
2022-11-05T00:52:56.332Z,100855.16
2022-11-05T00:55:28.993Z,100858.84
2022-11-05T00:57:56.907Z,100860.34
2022-11-05T01:00:25.235Z,100863.63
2022-11-05T01:02:52.226Z,100871.97
2022-11-05T01:05:18.939Z,100874.06
2022-11-05T01:07:45.676Z,100879.13
2022-11-05T01:10:12.163Z,100876.22
2022-11-05T01:12:38.681Z,100879.59
2022-11-05T01:15:06.219Z,100884.31
2022-11-05T01:17:32.706Z,100881.16
2022-11-05T01:19:59.561Z,100881.50
2022-11-05T01:22:26.067Z,100877.41
2022-11-05T01:24:52.674Z,100882.75
2022-11-05T01:27:19.285Z,100876.66
2022-11-05T01:29:45.733Z,100873.63
2022-11-05T01:32:12.211Z,100881.72
2022-11-05T01:34:38.681Z,100883.84
2022-11-05T01:37:05.172Z,100881.47
2022-11-05T01:39:31.746Z,100897.31
2022-11-05T01:41:58.959Z,100890.16
2022-11-05T01:44:53.397Z,100890.63
2022-11-05T01:47:25.957Z,100894.16
2022-11-05T01:49:53.088Z,100901.16
2022-11-05T01:52:21.143Z,100907.66
2022-11-05T01:54:47.950Z,100911.28
2022-11-05T01:57:14.823Z,100912.81
2022-11-05T01:59:47.240Z,100911.28
2022-11-05T02:02:14.088Z,100907.53
2022-11-05T02:04:48.712Z,100901.91
2022-11-05T02:07:15.617Z,100894.06
2022-11-05T02:09:51.285Z,100898.13
2022-11-05T02:12:18.504Z,100894.75
2022-11-05T02:14:44.966Z,100898.38
2022-11-05T02:17:22.867Z,100901.31
2022-11-05T02:20:11.322Z,100902.03
2022-11-05T02:23:06.745Z,100906.59
2022-11-05T02:26:20.296Z,100901.09
2022-11-05T02:29:22.252Z,100905.31
2022-11-05T02:32:13.864Z,100895.59
2022-11-05T02:35:01.778Z,100900.63
2022-11-05T02:37:40.847Z,100907.06
2022-11-05T02:40:19.501Z,100907.31
2022-11-05T02:43:02.837Z,100915.41
2022-11-05T02:46:02.688Z,100917.03
2022-11-05T02:48:49.072Z,100908.94
2022-11-05T02:51:31.893Z,100912.00
2022-11-05T02:54:16.227Z,100913.53
2022-11-05T02:56:48.418Z,100915.25
2022-11-05T02:59:14.911Z,100914.44
2022-11-05T03:01:43.976Z,100913.28
2022-11-05T03:04:13.322Z,100919.16
2022-11-05T03:06:55.138Z,100919.03
2022-11-05T03:09:33.971Z,100915.75
2022-11-05T03:12:22.039Z,100922.53
2022-11-05T03:15:16.507Z,100915.16
2022-11-05T03:17:48.609Z,100916.56
2022-11-05T03:20:19.243Z,100919.72
2022-11-05T03:22:59.690Z,100918.31
2022-11-05T03:25:29.123Z,100930.50
2022-11-05T03:28:05.315Z,100932.50
2022-11-05T03:30:33.775Z,100930.63
2022-11-05T03:33:13.590Z,100935.44
2022-11-05T03:35:46.543Z,100935.09
2022-11-05T03:38:19.670Z,100927.34
2022-11-05T03:40:49.456Z,100935.53
2022-11-05T03:43:17.551Z,100932.97
2022-11-05T03:45:50.473Z,100941.97
2022-11-05T03:48:19.328Z,100942.94
2022-11-05T03:51:12.642Z,100945.25
2022-11-05T03:54:05.626Z,100949.00
2022-11-05T03:56:35.005Z,100949.69
2022-11-05T03:59:04.488Z,100956.13
2022-11-05T04:01:31.883Z,100957.91
2022-11-05T04:03:58.743Z,100957.44
2022-11-05T04:06:43.839Z,100960.59
2022-11-05T04:09:29.218Z,100951.09
2022-11-05T04:12:14.153Z,100959.41
2022-11-05T04:14:40.576Z,100973.34
2022-11-05T04:17:07.128Z,100973.38
2022-11-05T04:19:53.201Z,100984.16
2022-11-05T04:22:38.579Z,100978.41
2022-11-05T04:25:05.200Z,100989.41
2022-11-05T04:27:31.921Z,100994.09
2022-11-05T04:30:16.739Z,100976.16
2022-11-05T04:32:43.195Z,100985.19
2022-11-05T04:35:09.620Z,100983.91
2022-11-05T04:37:36.089Z,100984.16
2022-11-05T04:40:02.517Z,100988.84
2022-11-05T04:42:29.400Z,100979.69
2022-11-05T04:44:55.855Z,100989.22
2022-11-05T04:47:22.410Z,100986.28
2022-11-05T04:49:48.932Z,100991.78
2022-11-05T04:52:15.515Z,100991.06
2022-11-05T04:54:41.950Z,100991.66
2022-11-05T04:57:08.540Z,100991.91
2022-11-05T04:59:35.036Z,100993.97
2022-11-05T05:02:02.531Z,101001.59
2022-11-05T05:04:29.232Z,100999.97
2022-11-05T05:06:55.746Z,101005.16
2022-11-05T05:09:22.417Z,101006.75
2022-11-05T05:11:48.819Z,101012.50
2022-11-05T05:14:15.298Z,101010.72
2022-11-05T05:16:41.758Z,101010.34
2022-11-05T05:19:08.372Z,101012.09
2022-11-05T05:21:41.091Z,101016.44
2022-11-05T05:24:16.164Z,101008.09
2022-11-05T05:26:45.299Z,101015.66
2022-11-05T05:29:12.286Z,101018.56
2022-11-05T05:31:38.933Z,101022.19
2022-11-05T05:34:06.542Z,101021.94
2022-11-05T05:36:33.582Z,101018.03
2022-11-05T05:39:00.258Z,101022.72
2022-11-05T05:41:27.939Z,101016.28
2022-11-05T05:43:54.489Z,101017.56
2022-11-05T05:46:20.930Z,101022.97
2022-11-05T05:48:51.926Z,101022.97
2022-11-05T05:51:18.983Z,101032.34
2022-11-05T05:53:45.568Z,101034.00
2022-11-05T05:56:14.868Z,101033.50
2022-11-05T05:58:41.796Z,101044.72
2022-11-05T06:01:17.420Z,101046.22
2022-11-05T06:03:45.607Z,101054.47
2022-11-05T06:06:14.008Z,101051.00
2022-11-05T06:08:40.992Z,101050.84
2022-11-05T06:11:08.519Z,101060.44
2022-11-05T06:13:36.467Z,101052.81
2022-11-05T06:16:05.051Z,101059.59
2022-11-05T06:18:32.425Z,101054.69
2022-11-05T06:21:10.112Z,101054.00
2022-11-05T06:23:38.089Z,101057.69
2022-11-05T06:26:07.534Z,101054.69
2022-11-05T06:28:34.744Z,101055.72
2022-11-05T06:31:02.282Z,101056.63
2022-11-05T06:33:29.404Z,101066.78
2022-11-05T06:35:59.469Z,101052.50
2022-11-05T06:38:26.040Z,101052.88
2022-11-05T06:40:52.536Z,101050.19
2022-11-05T06:43:19.007Z,101058.19
2022-11-05T06:45:45.480Z,101067.66
2022-11-05T06:48:11.943Z,101067.59
2022-11-05T06:50:38.430Z,101073.53
2022-11-05T06:53:05.426Z,101079.88
2022-11-05T06:55:32.188Z,101081.16
2022-11-05T06:57:59.028Z,101074.94
2022-11-05T07:00:25.855Z,101083.44
2022-11-05T07:02:52.317Z,101085.25
2022-11-05T07:05:18.774Z,101093.69
2022-11-05T07:07:45.779Z,101093.25
2022-11-05T07:10:14.939Z,101095.72
2022-11-05T07:12:41.807Z,101099.38
2022-11-05T07:15:09.478Z,101099.38
2022-11-05T07:17:35.988Z,101116.72
2022-11-05T07:20:03.766Z,101116.66
2022-11-05T07:22:30.425Z,101119.97
2022-11-05T07:24:57.057Z,101125.28
2022-11-05T07:27:23.565Z,101120.72
2022-11-05T07:29:50.031Z,101124.03
2022-11-05T07:32:16.524Z,101132.38
2022-11-05T07:34:43.039Z,101136.13
2022-11-05T07:37:09.650Z,101131.47
2022-11-05T07:39:36.104Z,101136.38
2022-11-05T07:42:02.760Z,101140.41
2022-11-05T07:44:33.062Z,101141.00
2022-11-05T07:46:59.773Z,101142.09
2022-11-05T07:49:26.255Z,101141.53
2022-11-05T07:51:53.579Z,101151.72
2022-11-05T07:54:20.071Z,101157.97
2022-11-05T07:56:47.938Z,101159.00
2022-11-05T07:59:14.375Z,101166.03
2022-11-05T08:01:41.046Z,101165.09
2022-11-05T08:04:07.568Z,101162.63
2022-11-05T08:06:34.104Z,101163.84
2022-11-05T08:09:00.903Z,101163.97
2022-11-05T08:11:27.863Z,101159.50
2022-11-05T08:13:54.522Z,101167.16
2022-11-05T08:16:20.963Z,101166.00
2022-11-05T08:18:48.252Z,101169.63
2022-11-05T08:21:14.853Z,101165.28
2022-11-05T08:23:42.846Z,101161.19
2022-11-05T08:26:09.989Z,101171.06
2022-11-05T08:28:36.424Z,101173.25
2022-11-05T08:31:02.915Z,101169.19
2022-11-05T08:33:31.416Z,101182.47
2022-11-05T08:36:03.334Z,101175.53
2022-11-05T08:38:30.528Z,101192.72
2022-11-05T08:40:58.659Z,101180.59
2022-11-05T08:43:25.421Z,101176.63
2022-11-05T08:45:52.063Z,101191.63
2022-11-05T08:48:19.483Z,101196.91
2022-11-05T08:50:47.751Z,101196.31
2022-11-05T08:53:15.462Z,101193.63
2022-11-05T08:55:43.807Z,101194.31
2022-11-05T08:58:15.065Z,101200.31
2022-11-05T09:00:42.204Z,101203.59
2022-11-05T09:03:10.521Z,101198.72
2022-11-05T09:05:39.622Z,101203.78
2022-11-05T09:08:18.483Z,101204.28
2022-11-05T09:10:46.472Z,101197.41
2022-11-05T09:13:18.384Z,101203.03
2022-11-05T09:15:47.656Z,101205.50
2022-11-05T09:18:15.096Z,101199.59
2022-11-05T09:20:42.249Z,101207.06
2022-11-05T09:23:11.102Z,101207.25
2022-11-05T09:25:37.773Z,101207.97
2022-11-05T09:28:18.029Z,101207.09
2022-11-05T09:30:48.250Z,101211.06
2022-11-05T09:33:16.172Z,101210.06
2022-11-05T09:35:42.763Z,101218.34
2022-11-05T09:38:09.845Z,101221.59
2022-11-05T09:40:44.759Z,101217.72
2022-11-05T09:43:19.659Z,101227.81
2022-11-05T09:45:51.240Z,101222.31
2022-11-05T09:48:22.019Z,101231.38
2022-11-05T09:50:48.630Z,101227.97
2022-11-05T09:53:19.039Z,101231.28
2022-11-05T09:55:49.140Z,101233.22
2022-11-05T09:58:28.519Z,101227.06
2022-11-05T10:00:57.233Z,101230.84
2022-11-05T10:03:26.220Z,101237.31
2022-11-05T10:05:54.448Z,101235.31
2022-11-05T10:08:25.710Z,101229.44
2022-11-05T10:11:03.629Z,101240.94
2022-11-05T10:13:50.541Z,101240.25
2022-11-05T10:16:27.550Z,101243.56
2022-11-05T10:19:06.060Z,101248.13
2022-11-05T10:22:04.139Z,101253.97
2022-11-05T10:24:20.999Z,101254.97
2022-11-05T10:26:50.497Z,101254.47
2022-11-05T10:29:25.573Z,101253.19
2022-11-05T10:31:54.362Z,101260.63
2022-11-05T10:34:23.776Z,101253.00
2022-11-05T10:36:50.261Z,101261.28
2022-11-05T10:39:18.702Z,101254.53
2022-11-05T10:42:04.023Z,101259.25
2022-11-05T10:44:39.826Z,101262.91
2022-11-05T10:47:25.639Z,101254.97
2022-11-05T10:50:05.068Z,101260.63
2022-11-05T10:52:34.513Z,101256.38
2022-11-05T10:55:04.905Z,101249.88
2022-11-05T10:57:38.252Z,101266.81
2022-11-05T11:00:17.902Z,101257.13
2022-11-05T11:02:49.189Z,101265.22
2022-11-05T11:05:27.112Z,101249.53
2022-11-05T11:08:07.726Z,101255.06
2022-11-05T11:11:02.432Z,101250.81
2022-11-05T11:13:50.536Z,101249.53
2022-11-05T11:16:22.365Z,101252.97
2022-11-05T11:19:03.237Z,101263.25
2022-11-05T11:21:31.736Z,101252.72
2022-11-05T11:24:06.957Z,101257.31
2022-11-05T11:26:40.229Z,101252.28
2022-11-05T11:29:12.769Z,101255.06
2022-11-05T11:31:40.358Z,101264.66
2022-11-05T11:34:28.846Z,101260.31
2022-11-05T11:37:12.852Z,101250.81
2022-11-05T11:39:47.151Z,101253.41
2022-11-05T11:42:27.328Z,101249.50
2022-11-05T11:44:54.309Z,101251.78
2022-11-05T11:47:22.233Z,101245.53
2022-11-05T11:50:00.672Z,101245.28
2022-11-05T11:52:35.870Z,101248.38
2022-11-05T11:55:11.675Z,101254.97
2022-11-05T11:57:50.065Z,101245.75
2022-11-05T12:00:18.583Z,101238.66
2022-11-05T12:03:20.367Z,101249.28
2022-11-05T12:06:06.137Z,101248.47
2022-11-05T12:09:05.182Z,101239.06
2022-11-05T12:12:03.141Z,101245.00
2022-11-05T12:14:58.059Z,101247.00
2022-11-05T12:17:46.396Z,101240.72
2022-11-05T12:20:32.027Z,101248.66
2022-11-05T12:23:12.717Z,101252.50
2022-11-05T12:25:48.831Z,101242.41
2022-11-05T12:29:17.378Z,101251.16
2022-11-05T12:31:52.531Z,101235.66
2022-11-05T12:34:37.453Z,101245.13
2022-11-05T12:37:34.716Z,101242.41
2022-11-05T12:40:19.336Z,101230.72
2022-11-05T12:43:09.065Z,101235.91
2022-11-05T12:45:51.150Z,101232.66
2022-11-05T12:48:39.296Z,101228.88
2022-11-05T12:51:27.386Z,101234.34
2022-11-05T12:54:04.814Z,101244.13
2022-11-05T12:56:38.111Z,101233.72
2022-11-05T12:59:36.114Z,101245.13
2022-11-05T13:02:36.010Z,101237.16
2022-11-05T13:05:13.943Z,101238.81
2022-11-05T13:07:53.223Z,101224.44
2022-11-05T13:10:35.183Z,101221.50
2022-11-05T13:13:12.152Z,101230.22
2022-11-05T13:15:49.523Z,101217.22
2022-11-05T13:18:24.084Z,101225.94
2022-11-05T13:20:53.925Z,101222.88
2022-11-05T13:23:29.817Z,101223.69
2022-11-05T13:26:02.703Z,101223.69
2022-11-05T13:28:35.344Z,101229.41
2022-11-05T13:31:06.406Z,101219.31
2022-11-05T13:33:36.450Z,101226.13
2022-11-05T13:36:33.239Z,101209.59
2022-11-05T13:39:13.740Z,101219.94
2022-11-05T13:42:06.057Z,101213.97
2022-11-05T13:45:02.351Z,101216.19
2022-11-05T13:47:35.026Z,101224.34
2022-11-05T13:50:40.792Z,101219.13
2022-11-05T13:53:28.849Z,101212.91
2022-11-05T13:56:33.538Z,101223.75
2022-11-05T13:59:18.569Z,101231.03
2022-11-05T14:02:18.651Z,101230.66
2022-11-05T14:04:49.144Z,101223.28
2022-11-05T14:07:23.750Z,101231.53
2022-11-05T14:09:57.615Z,101222.56
2022-11-05T14:12:29.385Z,101226.31
2022-11-05T14:15:09.339Z,101220.91
2022-11-05T14:17:58.000Z,101217.31
2022-11-05T14:20:30.748Z,101213.72
2022-11-05T14:23:25.376Z,101221.81
2022-11-05T14:25:55.851Z,101211.25
2022-11-05T14:28:28.285Z,101216.59
2022-11-05T14:30:55.164Z,101218.19
2022-11-05T14:33:24.535Z,101218.22
2022-11-05T14:36:14.331Z,101214.06
2022-11-05T14:38:52.141Z,101225.47
2022-11-05T14:41:20.278Z,101224.69
2022-11-05T14:43:58.816Z,101227.19
2022-11-05T14:46:39.405Z,101220.91
2022-11-05T14:49:09.702Z,101224.63
2022-11-05T14:51:39.885Z,101221.09
2022-11-05T14:54:24.845Z,101223.22
2022-11-05T14:56:56.495Z,101231.84
2022-11-05T14:59:29.070Z,101229.94
2022-11-05T15:02:17.789Z,101229.34
2022-11-05T15:04:45.586Z,101221.16
2022-11-05T15:07:31.772Z,101225.75
2022-11-05T15:10:14.083Z,101235.50
2022-11-05T15:12:52.611Z,101234.38
2022-11-05T15:15:23.644Z,101231.97
2022-11-05T15:18:00.676Z,101228.38
2022-11-05T15:20:39.950Z,101233.56
2022-11-05T15:23:12.739Z,101237.03
2022-11-05T15:25:53.240Z,101237.22
2022-11-05T15:28:27.344Z,101241.78
2022-11-05T15:31:14.438Z,101241.19
2022-11-05T15:33:42.322Z,101235.47
2022-11-05T15:36:31.260Z,101229.72
2022-11-05T15:39:28.003Z,101229.97
2022-11-05T15:41:46.784Z,101226.72
2022-11-05T15:44:37.876Z,101231.28
2022-11-05T15:47:26.221Z,101238.25
2022-11-05T15:50:14.973Z,101232.78
2022-11-05T15:52:53.766Z,101230.06
2022-11-05T15:55:20.357Z,101230.81
2022-11-05T15:57:56.973Z,101233.47
2022-11-05T16:00:28.549Z,101227.97
2022-11-05T16:03:17.556Z,101225.25
2022-11-05T16:05:46.294Z,101216.31
2022-11-05T16:08:20.637Z,101215.47
2022-11-05T16:10:55.645Z,101214.91
2022-11-05T16:13:33.728Z,101213.03
2022-11-05T16:16:03.365Z,101211.16
2022-11-05T16:18:40.414Z,101206.53
2022-11-05T16:21:08.409Z,101207.34
2022-11-05T16:23:43.245Z,101216.81
2022-11-05T16:27:01.798Z,101212.63
2022-11-05T16:29:31.185Z,101218.31
2022-11-05T16:32:00.257Z,101215.03
2022-11-05T16:34:35.760Z,101214.22
2022-11-05T16:37:03.255Z,101217.69
2022-11-05T16:39:29.932Z,101216.56
2022-11-05T16:41:56.387Z,101210.53
2022-11-05T16:44:23.018Z,101223.59
2022-11-05T16:46:50.327Z,101223.84
2022-11-05T16:49:17.426Z,101219.50
2022-11-05T16:51:44.061Z,101224.09
2022-11-05T16:54:10.723Z,101225.50
2022-11-05T16:56:37.238Z,101227.88
2022-11-05T16:59:04.366Z,101229.19
2022-11-05T17:01:31.933Z,101242.91
2022-11-05T17:03:59.200Z,101250.72
2022-11-05T17:06:25.773Z,101253.34
2022-11-05T17:08:52.225Z,101258.03
2022-11-05T17:11:20.666Z,101255.00
2022-11-05T17:13:47.559Z,101260.59
2022-11-05T17:16:17.372Z,101262.69
2022-11-05T17:18:44.364Z,101260.81
2022-11-05T17:21:11.173Z,101265.94
2022-11-05T17:23:37.888Z,101267.78
2022-11-05T17:26:08.027Z,101266.56
2022-11-05T17:28:35.196Z,101260.50
2022-11-05T17:31:04.463Z,101259.59
2022-11-05T17:33:31.599Z,101258.69
2022-11-05T17:35:58.211Z,101256.47
2022-11-05T17:38:25.945Z,101270.00
2022-11-05T17:40:53.317Z,101271.66
2022-11-05T17:43:20.283Z,101271.16
2022-11-05T17:45:49.468Z,101265.66
2022-11-05T17:48:16.931Z,101265.66
2022-11-05T17:50:45.560Z,101262.22
2022-11-05T17:53:13.066Z,101262.94
2022-11-05T17:55:41.573Z,101267.16
2022-11-05T17:58:08.385Z,101280.94
2022-11-05T18:00:35.849Z,101272.66
2022-11-05T18:03:02.513Z,101268.84
2022-11-05T18:05:30.902Z,101272.41
2022-11-05T18:07:57.833Z,101270.75
2022-11-05T18:10:25.224Z,101265.81
2022-11-05T18:12:52.114Z,101267.72
2022-11-05T18:15:18.616Z,101265.25
2022-11-05T18:17:46.307Z,101264.75
2022-11-05T18:20:18.948Z,101259.59
2022-11-05T18:22:48.053Z,101255.22
2022-11-05T18:25:14.601Z,101247.94
2022-11-05T18:27:41.284Z,101248.44
2022-11-05T18:30:09.333Z,101250.06
2022-11-05T18:32:35.964Z,101262.78
2022-11-05T18:35:03.032Z,101257.94
2022-11-05T18:37:29.455Z,101257.59
2022-11-05T18:39:55.928Z,101254.91
2022-11-05T18:42:22.791Z,101252.75
2022-11-05T18:44:49.293Z,101255.47
2022-11-05T18:47:15.758Z,101246.53
2022-11-05T18:49:42.339Z,101244.41
2022-11-05T18:52:08.812Z,101249.09
2022-11-05T18:54:35.508Z,101254.41
2022-11-05T18:57:02.648Z,101250.91
2022-11-05T18:59:39.063Z,101246.03
2022-11-05T19:02:07.873Z,101245.97
2022-11-05T19:04:37.454Z,101236.78
2022-11-05T19:07:05.964Z,101245.16
2022-11-05T19:09:37.407Z,101245.63
2022-11-05T19:12:05.745Z,101247.50
2022-11-05T19:14:32.974Z,101238.91
2022-11-05T19:17:00.796Z,101242.94
2022-11-05T19:19:28.127Z,101249.16
2022-11-05T19:21:54.684Z,101247.50
2022-11-05T19:24:21.152Z,101251.28
2022-11-05T19:26:48.021Z,101242.69
2022-11-05T19:29:14.566Z,101243.81
2022-11-05T19:31:41.053Z,101244.91
2022-11-05T19:34:07.614Z,101244.06
2022-11-05T19:36:34.652Z,101238.41
2022-11-05T19:39:06.237Z,101243.50
2022-11-05T19:41:33.049Z,101241.59
2022-11-05T19:44:01.428Z,101236.63
2022-11-05T19:46:28.953Z,101231.94
2022-11-05T19:48:56.205Z,101228.66
2022-11-05T19:51:25.488Z,101232.25
2022-11-05T19:53:52.980Z,101232.75
2022-11-05T19:56:22.045Z,101234.06
2022-11-05T19:58:49.128Z,101229.97
2022-11-05T20:01:17.046Z,101239.22
2022-11-05T20:03:44.018Z,101245.47
2022-11-05T20:06:13.037Z,101241.13
2022-11-05T20:09:06.671Z,101233.00
2022-11-05T20:11:28.228Z,101240.56
2022-11-05T20:13:54.724Z,101237.84
2022-11-05T20:16:25.924Z,101236.78
2022-11-05T20:18:52.507Z,101234.81
2022-11-05T20:21:19.365Z,101230.69
2022-11-05T20:23:47.153Z,101232.84
2022-11-05T20:26:14.610Z,101238.66
2022-11-05T20:28:42.835Z,101226.84
2022-11-05T20:31:13.040Z,101236.03
2022-11-05T20:33:40.744Z,101233.00
2022-11-05T20:36:10.087Z,101237.00
2022-11-05T20:38:36.543Z,101233.81
2022-11-05T20:41:08.104Z,101230.53
2022-11-05T20:43:35.576Z,101233.22
2022-11-05T20:46:03.065Z,101226.69
2022-11-05T20:48:34.378Z,101232.59
2022-11-05T20:51:06.571Z,101229.56
2022-11-05T20:53:33.319Z,101237.44
2022-11-05T20:56:02.517Z,101235.94
2022-11-05T20:58:33.384Z,101232.41
2022-11-05T21:01:00.162Z,101233.56
2022-11-05T21:03:27.968Z,101235.69
2022-11-05T21:05:59.778Z,101240.22
2022-11-05T21:08:27.949Z,101234.56
2022-11-05T21:10:55.965Z,101246.19
2022-11-05T21:13:23.443Z,101241.84
2022-11-05T21:15:52.340Z,101247.50
2022-11-05T21:18:20.648Z,101253.50
2022-11-05T21:20:47.818Z,101253.25
2022-11-05T21:23:15.385Z,101249.72
2022-11-05T21:25:43.254Z,101247.00
2022-11-05T21:28:11.546Z,101256.38
2022-11-05T21:30:41.596Z,101258.78
2022-11-05T21:33:08.969Z,101255.06
2022-11-05T21:35:39.821Z,101252.84
2022-11-05T21:38:06.778Z,101253.91
2022-11-05T21:40:33.419Z,101256.88
2022-11-05T21:43:00.108Z,101251.94
2022-11-05T21:45:28.116Z,101244.63
2022-11-05T21:47:54.706Z,101241.94
2022-11-05T21:50:41.247Z,101240.53
2022-11-05T21:53:32.222Z,101234.66
2022-11-05T21:56:18.327Z,101224.88
2022-11-05T21:59:03.428Z,101235.13
2022-11-05T22:01:30.096Z,101232.00
2022-11-05T22:04:01.876Z,101221.06
2022-11-05T22:06:32.601Z,101213.22
2022-11-05T22:08:59.419Z,101225.34
2022-11-05T22:11:26.047Z,101215.09
2022-11-05T22:13:53.444Z,101211.31
2022-11-05T22:16:19.952Z,101210.75
2022-11-05T22:18:46.389Z,101209.25
2022-11-05T22:21:19.126Z,101211.72
2022-11-05T22:23:45.780Z,101200.91
2022-11-05T22:26:12.457Z,101212.53
2022-11-05T22:28:38.987Z,101211.72
2022-11-05T22:31:12.372Z,101197.84
2022-11-05T22:33:38.889Z,101197.53
2022-11-05T22:36:05.779Z,101207.69
2022-11-05T22:38:32.301Z,101199.84
2022-11-05T22:40:59.454Z,101196.13
2022-11-05T22:43:26.016Z,101189.91
2022-11-05T22:45:52.487Z,101192.28
2022-11-05T22:48:18.901Z,101191.53
2022-11-05T22:50:45.396Z,101188.09
2022-11-05T22:53:11.852Z,101181.38
2022-11-05T22:55:41.069Z,101183.16
2022-11-05T22:58:07.553Z,101187.19
2022-11-05T23:00:36.929Z,101194.59
2022-11-05T23:03:03.924Z,101189.59
2022-11-05T23:05:30.681Z,101191.28
2022-11-05T23:08:16.032Z,101190.47
2022-11-05T23:11:04.263Z,101191.91
2022-11-05T23:13:30.874Z,101183.28
2022-11-05T23:16:15.713Z,101182.44
2022-11-05T23:19:01.031Z,101186.81
2022-11-05T23:21:46.131Z,101177.59
2022-11-05T23:24:13.460Z,101178.94
2022-11-05T23:26:52.599Z,101182.53
2022-11-05T23:29:21.909Z,101178.28
2022-11-05T23:32:07.188Z,101170.41
2022-11-05T23:34:33.708Z,101172.78
2022-11-05T23:37:19.099Z,101167.03
2022-11-05T23:39:45.635Z,101161.88
2022-11-05T23:42:31.448Z,101167.28
2022-11-05T23:45:16.689Z,101167.03
2022-11-05T23:48:01.600Z,101170.47
2022-11-05T23:50:29.392Z,101165.78
2022-11-05T23:52:56.200Z,101162.59
2022-11-05T23:55:23.461Z,101159.34
2022-11-05T23:57:50.310Z,101146.28
